Terminal Aerodrome Forecast
Issued by NWS

Home | Current Version | Previous Version | Graphics & Text | Print | Product List | Glossary On
Versions: 1 2 3 4 5 6 7 8 9 10 11 12 13 14 15 16 17 18 19
853
FTUS43 KTOP 301721
TAFMHK
TAF
KMHK 301721Z 3018/0118 26011KT P6SM BKN015 OVC020
     FM302000 28009KT P6SM SCT015 BKN035
     FM010500 28010KT P6SM SCT006 BKN012=

USA.gov is the U.S. government's official web portal to all federal, state and local government web resources and services.